Time;durP1;ratioP1;P1;durP2;ratioP2;P2;SDS_P1;SDS_P2;PMS_P1;PMS_P2;Temp;Humidity;BMP_temperature;BMP_pressure;BME280_temperature;BME280_humidity;BME280_pressure;Samples;Min_cycle;Max_cycle;Signal;HPM_P1;HPM_P2
2023/01/23 00:01:58;;;;;;;19.55;13.75;;;4.80;99.90;;;;;;5078908;28;20231;-78
2023/01/23 00:04:30;;;;;;;15.80;13.10;;;4.90;99.90;;;;;;4975219;28;20227;-78
2023/01/23 00:07:02;;;;;;;18.52;14.38;;;4.80;99.90;;;;;;4976556;28;20223;-78
2023/01/23 00:09:29;;;;;;;16.65;13.63;;;4.80;99.90;;;;;;4976100;28;20727;-82
2023/01/23 00:11:56;;;;;;;20.48;13.10;;;4.80;99.90;;;;;;4974379;28;20219;-78
2023/01/23 00:14:23;;;;;;;19.80;14.10;;;4.80;99.90;;;;;;4976635;28;20238;-82
2023/01/23 00:16:50;;;;;;;19.63;14.18;;;4.80;99.90;;;;;;4975607;28;20234;-82
2023/01/23 00:19:20;;;;;;;22.65;14.55;;;4.80;99.90;;;;;;5075328;28;20582;-81
2023/01/23 00:21:47;;;;;;;21.55;14.18;;;4.80;99.90;;;;;;5066672;28;20220;-78
2023/01/23 00:24:16;;;;;;;19.17;13.88;;;4.70;99.90;;;;;;5075418;28;20241;-81
2023/01/23 00:26:44;;;;;;;18.98;13.38;;;4.70;99.90;;;;;;5076227;28;20499;-81
2023/01/23 00:29:11;;;;;;;19.00;13.75;;;4.70;99.90;;;;;;5075782;28;20228;-82
2023/01/23 00:31:39;;;;;;;17.60;13.60;;;4.70;99.90;;;;;;5074847;28;20216;-82
2023/01/23 00:34:08;;;;;;;20.98;13.95;;;4.70;99.90;;;;;;5073882;28;20216;-78
2023/01/23 00:36:39;;;;;;;18.40;12.65;;;4.70;99.90;;;;;;5074255;28;20512;-82
2023/01/23 00:39:09;;;;;;;17.98;12.25;;;4.80;99.90;;;;;;5067608;28;20219;-81
2023/01/23 00:41:36;;;;;;;21.52;14.00;;;4.70;99.90;;;;;;5074290;28;20220;-81
2023/01/23 00:44:03;;;;;;;18.60;15.00;;;4.70;99.90;;;;;;5074907;28;20579;-81
2023/01/23 00:46:30;;;;;;;17.00;13.18;;;4.60;99.90;;;;;;5073901;28;20239;-81
2023/01/23 00:48:59;;;;;;;16.98;12.38;;;4.60;99.90;;;;;;5073459;28;20226;-81
2023/01/23 00:51:29;;;;;;;17.95;14.02;;;4.70;99.90;;;;;;5073081;28;20281;-78
2023/01/23 00:53:58;;;;;;;18.85;13.38;;;4.70;99.90;;;;;;5074796;28;20535;-81
2023/01/23 00:56:25;;;;;;;16.60;12.75;;;4.80;99.90;;;;;;5072943;28;20243;-78
2023/01/23 00:58:52;;;;;;;20.30;14.85;;;4.80;99.90;;;;;;5074940;28;20676;-78
2023/01/23 01:01:21;;;;;;;21.05;14.57;;;4.80;99.90;;;;;;5074331;28;20293;-81
2023/01/23 01:03:48;;;;;;;18.10;14.80;;;4.80;99.90;;;;;;5072651;28;20246;-81
2023/01/23 01:06:16;;;;;;;20.77;15.18;;;4.80;99.90;;;;;;5073814;28;20309;-78
2023/01/23 01:08:45;;;;;;;17.33;13.60;;;4.90;99.90;;;;;;4973961;28;20701;-78
2023/01/23 01:11:13;;;;;;;20.50;14.30;;;4.80;99.90;;;;;;4973601;28;20228;-81
2023/01/23 01:13:44;;;;;;;21.10;14.05;;;4.80;99.90;;;;;;5072381;28;20274;-81
2023/01/23 01:16:12;;;;;;;17.05;13.70;;;4.90;99.90;;;;;;5072497;28;20216;-78
2023/01/23 01:18:39;;;;;;;19.10;13.48;;;4.90;99.90;;;;;;5072970;28;20311;-78
2023/01/23 01:21:08;;;;;;;20.77;13.90;;;4.90;99.90;;;;;;5072980;28;20293;-77
2023/01/23 01:23:41;;;;;;;18.40;14.15;;;4.90;99.90;;;;;;5072530;28;20228;-78
2023/01/23 01:26:09;;;;;;;19.33;14.05;;;4.90;99.90;;;;;;5072877;28;20235;-78
2023/01/23 01:28:39;;;;;;;21.98;15.18;;;4.90;99.90;;;;;;5071964;28;20231;-77
2023/01/23 01:31:09;;;;;;;21.95;15.45;;;4.90;99.90;;;;;;5073522;28;20223;-78
2023/01/23 01:33:38;;;;;;;17.35;11.90;;;4.90;99.90;;;;;;5073045;28;20224;-77
2023/01/23 01:36:11;;;;;;;19.83;14.68;;;4.90;99.90;;;;;;5073548;28;20603;-78
2023/01/23 01:38:51;;;;;;;16.80;13.63;;;5.00;99.90;;;;;;5073063;28;20224;-81
2023/01/23 01:41:18;;;;;;;20.77;15.07;;;5.00;99.90;;;;;;5073666;28;20235;-81
2023/01/23 01:43:47;;;;;;;20.38;15.07;;;5.00;99.90;;;;;;5073168;28;20300;-78
2023/01/23 01:46:18;;;;;;;17.95;13.73;;;5.00;99.90;;;;;;5072008;28;20235;-81
2023/01/23 01:49:02;;;;;;;17.73;13.63;;;5.00;99.90;;;;;;5072686;28;20235;-78
2023/01/23 01:51:33;;;;;;;19.40;13.18;;;5.00;99.90;;;;;;5071077;28;20232;-81
2023/01/23 01:54:11;;;;;;;18.27;13.52;;;5.00;99.90;;;;;;5063723;28;20707;-78
2023/01/23 01:56:48;;;;;;;20.67;14.48;;;5.00;99.90;;;;;;5073892;28;20684;-80
2023/01/23 01:59:34;;;;;;;;;;;;;;;;;;;;;
2023/01/23 02:02:06;;;;;;;17.65;13.70;;;5.00;99.90;;;;;;5072507;28;21427;-81
2023/01/23 02:04:35;;;;;;;19.20;13.73;;;5.00;99.90;;;;;;5072262;28;20714;-78
2023/01/23 02:07:07;;;;;;;20.40;13.82;;;4.90;99.90;;;;;;5072037;28;20397;-82
2023/01/23 02:09:35;;;;;;;18.58;14.30;;;5.00;99.90;;;;;;5072170;28;20254;-82
2023/01/23 02:12:03;;;;;;;18.42;12.93;;;5.10;99.90;;;;;;5072373;28;20265;-82
2023/01/23 02:14:32;;;;;;;21.73;14.95;;;5.10;99.90;;;;;;4971062;28;20247;-81
2023/01/23 02:17:02;;;;;;;22.98;16.48;;;5.00;99.90;;;;;;5071556;28;20228;-77
2023/01/23 02:19:40;;;;;;;18.58;13.60;;;5.00;99.90;;;;;;5073286;28;20247;-82
2023/01/23 02:22:21;;;;;;;18.17;14.70;;;5.00;99.90;;;;;;5072834;28;20294;-77
2023/01/23 02:24:59;;;;;;;20.00;15.30;;;5.10;99.90;;;;;;5071034;28;20262;-78
2023/01/23 02:27:27;;;;;;;18.95;14.35;;;5.00;99.90;;;;;;5071479;28;20276;-78
2023/01/23 02:29:55;;;;;;;19.23;15.75;;;5.10;99.90;;;;;;5071544;28;20224;-78
2023/01/23 02:32:23;;;;;;;21.05;15.07;;;5.00;99.90;;;;;;5074903;28;20241;-81
2023/01/23 02:34:51;;;;;;;21.73;14.52;;;5.10;99.90;;;;;;5076475;28;20247;-77
2023/01/23 02:37:19;;;;;;;17.52;13.40;;;5.00;99.90;;;;;;5076948;28;20300;-77
2023/01/23 02:39:48;;;;;;;22.55;14.20;;;5.10;99.90;;;;;;5077486;28;20250;-80
2023/01/23 02:42:16;;;;;;;19.13;14.80;;;5.00;99.90;;;;;;5077065;28;20232;-77
2023/01/23 02:44:48;;;;;;;16.23;13.25;;;5.10;99.90;;;;;;5076596;28;20289;-77
2023/01/23 02:47:16;;;;;;;17.77;13.35;;;5.10;99.90;;;;;;5077053;28;20228;-82
2023/01/23 02:49:43;;;;;;;19.55;15.00;;;5.10;99.90;;;;;;5075870;28;20741;-78
2023/01/23 02:52:10;;;;;;;20.60;14.45;;;5.10;99.90;;;;;;5076002;28;20306;-78
2023/01/23 02:54:39;;;;;;;16.35;12.77;;;5.10;99.90;;;;;;5076977;28;20307;-78
2023/01/23 02:57:06;;;;;;;19.20;14.98;;;5.10;99.90;;;;;;5075879;28;20219;-82
2023/01/23 03:02:19;;;;;;;18.75;14.85;;;5.10;99.90;;;;;;5076657;28;20251;-78
2023/01/23 03:04:46;;;;;;;23.38;14.50;;;5.10;99.90;;;;;;5068159;28;20357;-82
2023/01/23 03:07:14;;;;;;;20.05;15.77;;;5.10;99.90;;;;;;5077830;28;20232;-82
2023/01/23 03:09:42;;;;;;;23.63;15.20;;;5.10;99.90;;;;;;5069887;28;20319;-82
2023/01/23 03:12:10;;;;;;;21.95;15.07;;;5.00;99.90;;;;;;5078127;28;20246;-82
2023/01/23 03:15:06;;;;;;;22.83;14.98;;;5.00;99.90;;;;;;5078203;28;20246;-82
2023/01/23 03:17:36;;;;;;;19.75;15.32;;;5.00;99.90;;;;;;5081737;28;20219;-82
2023/01/23 03:20:05;;;;;;;19.70;14.88;;;5.00;99.90;;;;;;5077624;28;20306;-80
2023/01/23 03:22:32;;;;;;;18.20;13.23;;;5.00;99.90;;;;;;5082053;28;20220;-80
2023/01/23 03:25:00;;;;;;;17.95;13.30;;;5.10;99.90;;;;;;5077589;28;20756;-78
2023/01/23 03:27:27;;;;;;;22.52;15.32;;;5.10;99.90;;;;;;5075455;28;20240;-78
2023/01/23 03:30:15;;;;;;;22.65;15.05;;;5.10;99.90;;;;;;5081733;28;20228;-78
2023/01/23 03:32:45;;;;;;;21.00;14.95;;;5.00;99.90;;;;;;5078194;28;20211;-81
2023/01/23 03:35:15;;;;;;;18.55;14.15;;;5.00;99.90;;;;;;5077545;28;20560;-81
2023/01/23 03:37:42;;;;;;;19.95;13.60;;;5.00;99.90;;;;;;5076536;28;20580;-78
2023/01/23 03:43:00;;;;;;;19.38;14.13;;;5.10;99.90;;;;;;5074205;28;20267;-78
2023/01/23 03:45:27;;;;;;;24.00;15.43;;;5.10;99.90;;;;;;5075728;28;20305;-80
2023/01/23 03:47:55;;;;;;;21.83;15.02;;;5.10;99.90;;;;;;5075851;28;20223;-81
2023/01/23 03:50:24;;;;;;;21.95;16.35;;;5.10;99.90;;;;;;4967413;28;20276;-82
2023/01/23 03:52:51;;;;;;;21.33;14.43;;;5.10;99.90;;;;;;4974135;28;20223;-79
2023/01/23 03:55:18;;;;;;;20.90;14.93;;;5.10;99.90;;;;;;4973453;28;20251;-79
2023/01/23 03:57:45;;;;;;;18.63;14.15;;;5.00;99.90;;;;;;4974457;28;20224;-82
2023/01/23 04:00:13;;;;;;;20.75;14.52;;;5.10;99.90;;;;;;4973644;28;20223;-79
2023/01/23 04:02:40;;;;;;;19.35;15.43;;;5.00;99.90;;;;;;4976172;28;20231;-81
2023/01/23 04:05:10;;;;;;;20.60;14.30;;;5.10;99.90;;;;;;5075937;28;20220;-80
2023/01/23 04:07:37;;;;;;;18.85;15.68;;;5.00;99.90;;;;;;5084591;28;20224;-80
2023/01/23 04:10:07;;;;;;;21.40;15.02;;;5.00;99.90;;;;;;5089020;28;20231;-80
2023/01/23 04:12:34;;;;;;;16.77;13.52;;;5.00;99.90;;;;;;5084183;28;20295;-81
2023/01/23 04:15:01;;;;;;;21.98;16.10;;;5.00;99.90;;;;;;5091731;28;20223;-81
2023/01/23 04:17:28;;;;;;;17.88;14.18;;;5.00;99.90;;;;;;5089207;28;20223;-81
2023/01/23 04:19:54;;;;;;;19.58;14.98;;;5.10;99.90;;;;;;5088556;28;20568;-81
2023/01/23 04:22:23;;;;;;;21.80;15.23;;;5.10;99.90;;;;;;5088702;28;20246;-80
2023/01/23 04:24:50;;;;;;;18.60;13.57;;;5.10;99.90;;;;;;5081453;28;20216;-81
2023/01/23 04:27:17;;;;;;;20.90;15.57;;;5.10;99.90;;;;;;5081446;28;20601;-78
2023/01/23 04:29:46;;;;;;;21.08;15.98;;;5.10;99.90;;;;;;5075804;28;20220;-82
2023/01/23 04:32:13;;;;;;;20.80;14.75;;;5.10;99.90;;;;;;5073828;28;20224;-78
2023/01/23 04:34:41;;;;;;;20.92;14.57;;;5.10;99.90;;;;;;5074706;28;20248;-81
2023/01/23 04:37:08;;;;;;;21.63;15.73;;;5.10;99.90;;;;;;5073270;28;20271;-81
2023/01/23 04:39:36;;;;;;;20.20;15.15;;;5.10;99.90;;;;;;5073958;28;20224;-78
2023/01/23 04:42:04;;;;;;;17.42;13.30;;;5.10;99.90;;;;;;5074708;28;20225;-81
2023/01/23 04:44:31;;;;;;;20.80;14.68;;;5.00;99.90;;;;;;5074011;28;20246;-78
2023/01/23 04:47:00;;;;;;;25.17;17.30;;;5.00;99.90;;;;;;5074094;28;20656;-81
2023/01/23 04:49:27;;;;;;;24.15;14.98;;;5.00;99.90;;;;;;5073702;28;20252;-81
2023/01/23 04:51:55;;;;;;;20.15;15.40;;;5.00;99.90;;;;;;5074814;28;20220;-78
2023/01/23 04:54:22;;;;;;;20.30;14.00;;;5.00;99.90;;;;;;5073327;28;20254;-81
2023/01/23 04:56:50;;;;;;;21.33;15.63;;;5.00;99.90;;;;;;5074399;28;20231;-81
2023/01/23 04:59:17;;;;;;;19.15;14.52;;;5.00;99.90;;;;;;5073281;28;20783;-81
2023/01/23 05:01:45;;;;;;;20.48;15.60;;;5.00;99.90;;;;;;5074265;28;20531;-78
2023/01/23 05:04:12;;;;;;;23.13;16.35;;;5.00;99.90;;;;;;5073284;28;20220;-82
2023/01/23 05:06:40;;;;;;;18.08;13.65;;;5.00;99.90;;;;;;5073763;28;20228;-79
2023/01/23 05:09:07;;;;;;;24.02;15.70;;;5.00;99.90;;;;;;5073687;28;20220;-78
2023/01/23 05:11:34;;;;;;;27.67;16.95;;;5.00;99.90;;;;;;5071360;28;20282;-82
2023/01/23 05:14:03;;;;;;;22.63;16.05;;;5.00;99.90;;;;;;5073546;28;20293;-82
2023/01/23 05:16:30;;;;;;;20.85;16.63;;;5.00;99.90;;;;;;5074139;28;20258;-82
2023/01/23 05:18:57;;;;;;;21.50;16.88;;;5.10;99.90;;;;;;5073601;28;20539;-78
2023/01/23 05:21:24;;;;;;;21.00;15.32;;;5.10;99.90;;;;;;5073869;28;20220;-82
2023/01/23 05:23:51;;;;;;;20.70;15.27;;;5.10;99.90;;;;;;5074081;28;20305;-81
2023/01/23 05:26:18;;;;;;;21.65;16.40;;;5.00;99.90;;;;;;5074258;28;20608;-82
2023/01/23 05:28:45;;;;;;;19.88;16.13;;;5.00;99.90;;;;;;5074719;28;20247;-82
2023/01/23 05:31:13;;;;;;;19.80;14.27;;;5.00;99.90;;;;;;5074608;28;20266;-82
2023/01/23 05:33:41;;;;;;;23.00;16.20;;;5.00;99.90;;;;;;5073748;28;20216;-78
2023/01/23 05:36:08;;;;;;;23.17;18.00;;;5.00;99.90;;;;;;5075638;28;20312;-81
2023/01/23 05:38:35;;;;;;;22.80;16.35;;;5.00;99.90;;;;;;5074546;28;20645;-81
2023/01/23 05:41:05;;;;;;;21.95;15.50;;;5.00;99.90;;;;;;5076383;28;20307;-82
2023/01/23 05:43:32;;;;;;;23.77;16.52;;;5.00;99.90;;;;;;5076917;28;20242;-82
2023/01/23 05:46:00;;;;;;;21.23;15.63;;;5.00;99.90;;;;;;5079637;28;20231;-81
2023/01/23 05:48:29;;;;;;;19.15;15.38;;;5.00;99.90;;;;;;5079452;28;20300;-82
2023/01/23 05:50:57;;;;;;;22.20;15.02;;;5.00;99.90;;;;;;5078577;28;20251;-79
2023/01/23 05:53:24;;;;;;;21.40;15.65;;;4.90;99.90;;;;;;5081342;28;20653;-79
2023/01/23 05:55:51;;;;;;;24.00;17.15;;;4.90;99.90;;;;;;5084436;28;20234;-82
2023/01/23 05:58:18;;;;;;;26.35;16.33;;;4.90;99.90;;;;;;5085219;28;20232;-81
2023/01/23 06:00:46;;;;;;;23.00;16.55;;;4.90;99.90;;;;;;5079053;28;20224;-81
2023/01/23 06:03:13;;;;;;;23.92;18.30;;;4.90;99.90;;;;;;5086469;28;20232;-79
2023/01/23 06:05:42;;;;;;;21.40;15.32;;;5.00;99.90;;;;;;5090511;28;20242;-79
2023/01/23 06:08:09;;;;;;;25.33;16.90;;;5.00;99.90;;;;;;5090021;28;20273;-78
2023/01/23 06:10:37;;;;;;;23.88;16.52;;;4.90;99.90;;;;;;5086557;28;20299;-78
2023/01/23 06:13:04;;;;;;;24.23;17.23;;;4.90;99.90;;;;;;5085293;28;20204;-78
2023/01/23 06:15:31;;;;;;;20.85;16.25;;;4.80;99.90;;;;;;5088461;28;20239;-78
2023/01/23 06:17:58;;;;;;;17.75;14.77;;;4.80;99.90;;;;;;5085134;28;20220;-78
2023/01/23 06:20:25;;;;;;;22.02;15.70;;;4.80;99.90;;;;;;5083871;28;20228;-79
2023/01/23 06:22:55;;;;;;;19.05;15.65;;;4.80;99.90;;;;;;5087847;28;20250;-78
2023/01/23 06:25:22;;;;;;;24.52;16.63;;;4.80;99.90;;;;;;5089203;28;20220;-81
2023/01/23 06:27:49;;;;;;;24.15;15.52;;;4.80;99.90;;;;;;5079727;28;20303;-78
2023/01/23 06:30:16;;;;;;;20.70;16.35;;;4.70;99.90;;;;;;5080323;28;20227;-80
2023/01/23 06:32:43;;;;;;;20.50;15.43;;;4.70;99.90;;;;;;5080948;28;20220;-81
2023/01/23 06:35:10;;;;;;;19.88;15.45;;;4.70;99.90;;;;;;5075203;28;20255;-81
2023/01/23 06:37:37;;;;;;;20.25;15.10;;;4.70;99.90;;;;;;5073937;28;20227;-81
2023/01/23 06:40:11;;;;;;;24.20;16.23;;;4.70;99.90;;;;;;5075706;28;20259;-81
2023/01/23 06:42:39;;;;;;;24.30;16.50;;;4.80;99.90;;;;;;5064205;28;20224;-82
2023/01/23 06:45:08;;;;;;;21.95;16.83;;;4.70;99.90;;;;;;5073229;28;20273;-78
2023/01/23 06:47:35;;;;;;;22.20;16.08;;;4.70;99.90;;;;;;5072276;28;20323;-78
2023/01/23 06:50:02;;;;;;;19.65;16.45;;;4.70;99.90;;;;;;5072808;28;20226;-81
2023/01/23 06:52:30;;;;;;;22.45;15.15;;;4.60;99.90;;;;;;5072624;28;20228;-81
2023/01/23 06:54:57;;;;;;;21.13;15.23;;;4.60;99.90;;;;;;5073313;28;20578;-81
2023/01/23 06:57:25;;;;;;;22.02;16.00;;;4.70;99.90;;;;;;5073697;28;20315;-78
2023/01/23 06:59:54;;;;;;;24.25;16.50;;;4.70;99.90;;;;;;5072111;28;20303;-81
2023/01/23 07:02:22;;;;;;;20.20;16.23;;;4.70;99.90;;;;;;5071204;28;20282;-81
2023/01/23 07:04:51;;;;;;;22.40;16.80;;;4.60;99.90;;;;;;5072542;28;20266;-78
2023/01/23 07:07:18;;;;;;;25.85;16.88;;;4.60;99.90;;;;;;5072332;28;20705;-78
2023/01/23 07:09:45;;;;;;;20.67;14.27;;;4.50;99.90;;;;;;5061702;28;20317;-78
2023/01/23 07:12:14;;;;;;;27.52;16.80;;;4.60;99.90;;;;;;5071762;28;20272;-78
2023/01/23 07:14:42;;;;;;;24.95;18.05;;;4.60;99.90;;;;;;5072427;28;20696;-78
2023/01/23 07:17:12;;;;;;;24.30;15.40;;;4.60;99.90;;;;;;5072376;28;20224;-78
2023/01/23 07:19:39;;;;;;;25.67;17.63;;;4.70;99.90;;;;;;5074771;28;20244;-82
2023/01/23 07:22:06;;;;;;;24.25;16.20;;;4.70;99.90;;;;;;5076378;28;20224;-79
2023/01/23 07:24:33;;;;;;;20.58;15.20;;;4.70;99.90;;;;;;5075625;28;20224;-78
2023/01/23 07:27:00;;;;;;;23.40;16.58;;;4.80;99.90;;;;;;5076456;28;20215;-79
2023/01/23 07:29:27;;;;;;;28.17;17.90;;;4.70;99.90;;;;;;5076488;28;20248;-81
2023/01/23 07:31:59;;;;;;;21.63;16.20;;;4.70;99.90;;;;;;5076089;28;20260;-82
2023/01/23 07:34:26;;;;;;;21.88;15.30;;;4.80;99.90;;;;;;5064509;28;20349;-78
2023/01/23 07:36:53;;;;;;;25.08;17.55;;;4.80;99.90;;;;;;5022442;28;20619;-81
2023/01/23 07:39:20;;;;;;;23.42;16.27;;;4.80;99.90;;;;;;4974792;28;20314;-81
2023/01/23 07:41:49;;;;;;;23.38;17.60;;;4.80;99.90;;;;;;4973142;28;20367;-78
2023/01/23 07:44:20;;;;;;;23.02;17.15;;;4.70;99.90;;;;;;4974986;28;20593;-78
2023/01/23 07:46:51;;;;;;;20.73;16.08;;;4.70;99.90;;;;;;4974406;28;20314;-81
2023/01/23 07:49:19;;;;;;;24.77;17.45;;;4.70;99.90;;;;;;4974446;28;20711;-81
2023/01/23 07:51:46;;;;;;;23.92;17.33;;;4.70;99.90;;;;;;5004089;28;20692;-79
2023/01/23 07:54:22;;;;;;;23.52;15.77;;;4.70;99.90;;;;;;5018518;28;20235;-82
2023/01/23 07:56:50;;;;;;;25.42;16.52;;;4.70;99.90;;;;;;4973547;28;20263;-79
2023/01/23 07:59:21;;;;;;;25.60;18.13;;;4.70;99.90;;;;;;4973090;28;20299;-81
2023/01/23 08:01:50;;;;;;;24.88;19.23;;;4.70;99.90;;;;;;5002616;28;20228;-81
2023/01/23 08:04:17;;;;;;;24.52;15.63;;;4.70;99.90;;;;;;5062482;28;20232;-82
2023/01/23 08:06:48;;;;;;;22.17;15.55;;;4.70;99.90;;;;;;5001477;28;20672;-82
2023/01/23 08:09:15;;;;;;;22.38;15.68;;;4.70;99.90;;;;;;5072860;28;20565;-81
2023/01/23 08:11:42;;;;;;;26.02;16.88;;;4.80;99.90;;;;;;5074208;28;20224;-82
2023/01/23 08:14:09;;;;;;;26.40;18.90;;;4.80;99.90;;;;;;5074304;28;20297;-82
2023/01/23 08:16:36;;;;;;;27.75;17.30;;;4.70;99.90;;;;;;5075665;28;20224;-81
2023/01/23 08:19:08;;;;;;;23.73;17.25;;;4.80;99.90;;;;;;5074480;28;20220;-81
2023/01/23 08:21:35;;;;;;;25.63;18.30;;;4.80;99.90;;;;;;5075064;28;20220;-82
2023/01/23 08:24:04;;;;;;;23.02;16.33;;;4.80;99.90;;;;;;5074894;28;20302;-82
2023/01/23 08:26:32;;;;;;;21.50;15.10;;;4.80;99.90;;;;;;5074091;28;20227;-78
2023/01/23 08:28:59;;;;;;;20.40;15.75;;;4.80;99.90;;;;;;5073800;28;20227;-78
2023/01/23 08:31:27;;;;;;;23.13;18.58;;;4.80;99.90;;;;;;5074403;28;20227;-78
2023/01/23 08:33:55;;;;;;;25.80;18.52;;;4.90;99.90;;;;;;5073431;28;20302;-78
2023/01/23 08:36:23;;;;;;;24.30;18.10;;;4.80;99.90;;;;;;5073865;28;20738;-81
2023/01/23 08:38:52;;;;;;;26.25;17.17;;;4.80;99.90;;;;;;5073609;28;20231;-81
2023/01/23 08:41:22;;;;;;;25.58;17.70;;;4.80;99.90;;;;;;5073668;28;20273;-81
2023/01/23 08:43:51;;;;;;;26.73;18.23;;;4.90;99.90;;;;;;5073077;28;20288;-81
2023/01/23 08:46:23;;;;;;;24.85;16.95;;;4.90;99.90;;;;;;5073050;28;20228;-81
2023/01/23 08:48:54;;;;;;;23.58;17.35;;;4.80;99.90;;;;;;5061620;28;20247;-82
2023/01/23 08:51:24;;;;;;;22.80;17.50;;;4.90;99.90;;;;;;5074012;28;20232;-81
2023/01/23 08:53:52;;;;;;;28.30;17.13;;;4.80;99.90;;;;;;5073453;28;20220;-82
2023/01/23 08:56:24;;;;;;;29.50;17.48;;;4.80;99.90;;;;;;5027668;28;20285;-81
2023/01/23 08:58:53;;;;;;;25.45;16.00;;;4.80;99.90;;;;;;4973168;28;20326;-81
2023/01/23 09:01:24;;;;;;;22.25;16.02;;;4.90;99.90;;;;;;5046379;28;20371;-81
2023/01/23 09:03:52;;;;;;;26.17;17.20;;;4.80;99.90;;;;;;4972522;28;20377;-82
2023/01/23 09:06:21;;;;;;;23.83;18.55;;;4.80;99.90;;;;;;5072942;28;20521;-81
2023/01/23 09:08:49;;;;;;;27.05;18.58;;;4.80;99.90;;;;;;5073922;28;20224;-81
2023/01/23 09:11:17;;;;;;;22.98;17.17;;;4.90;99.90;;;;;;5073633;28;20231;-81
2023/01/23 09:13:46;;;;;;;28.05;17.55;;;4.90;99.90;;;;;;5074193;28;20247;-81
2023/01/23 09:16:13;;;;;;;23.20;17.13;;;4.90;99.90;;;;;;5074576;28;20282;-81
2023/01/23 09:18:40;;;;;;;24.45;18.08;;;5.00;99.90;;;;;;5072542;28;20235;-81
2023/01/23 09:21:08;;;;;;;22.90;16.38;;;5.00;99.90;;;;;;5074040;28;20303;-81
2023/01/23 09:23:35;;;;;;;21.40;16.08;;;5.00;99.90;;;;;;5074038;28;20262;-83
2023/01/23 09:26:05;;;;;;;22.60;17.83;;;4.90;99.90;;;;;;5074122;28;20220;-80
2023/01/23 09:28:33;;;;;;;28.38;17.70;;;4.90;99.90;;;;;;5073968;28;20223;-82
2023/01/23 09:31:06;;;;;;;26.05;15.30;;;4.90;99.90;;;;;;5073140;28;20252;-80
2023/01/23 09:33:33;;;;;;;26.35;17.08;;;5.00;99.90;;;;;;5074158;28;20224;-81
2023/01/23 09:36:00;;;;;;;21.67;16.95;;;5.00;99.90;;;;;;5072289;28;20224;-80
2023/01/23 09:38:27;;;;;;;22.65;17.27;;;5.00;99.90;;;;;;5073373;28;20223;-81
2023/01/23 09:40:57;;;;;;;21.75;16.13;;;5.00;99.90;;;;;;5072411;28;20693;-80
2023/01/23 09:43:30;;;;;;;25.35;18.75;;;5.10;99.90;;;;;;5074143;28;20231;-81
2023/01/23 09:46:05;;;;;;;22.38;15.95;;;5.10;99.90;;;;;;5062867;28;20314;-81
2023/01/23 09:48:40;;;;;;;26.25;16.63;;;5.10;99.90;;;;;;5073788;28;20611;-81
2023/01/23 09:51:15;;;;;;;21.15;17.63;;;5.20;99.90;;;;;;5063674;28;20813;-82
2023/01/23 09:53:42;;;;;;;22.80;16.83;;;5.20;99.90;;;;;;5075070;28;20705;-81
2023/01/23 09:56:19;;;;;;;19.25;15.85;;;5.20;99.90;;;;;;5074566;28;20228;-81
2023/01/23 09:59:03;;;;;;;29.30;16.95;;;5.10;99.90;;;;;;5075653;28;20269;-78
2023/01/23 10:01:32;;;;;;;22.45;16.23;;;5.10;99.90;;;;;;5088348;28;20220;-78
2023/01/23 10:04:00;;;;;;;24.45;16.80;;;5.10;99.90;;;;;;5087198;28;20215;-78
2023/01/23 10:06:30;;;;;;;27.08;16.48;;;5.10;99.90;;;;;;5088619;28;20232;-77
2023/01/23 10:09:24;;;;;;;22.05;17.20;;;5.10;99.90;;;;;;5076220;28;20224;-77
2023/01/23 10:11:59;;;;;;;24.67;15.93;;;5.20;99.90;;;;;;5081972;28;20224;-77
2023/01/23 10:14:45;;;;;;;27.10;18.27;;;5.20;99.90;;;;;;5077904;28;20300;-78
2023/01/23 10:17:22;;;;;;;21.40;15.57;;;5.20;99.90;;;;;;5067007;28;20234;-80
2023/01/23 10:20:08;;;;;;;22.50;16.90;;;5.20;99.90;;;;;;5077037;28;20243;-79
2023/01/23 10:22:39;;;;;;;20.98;16.55;;;5.20;99.90;;;;;;4980909;28;20707;-79
2023/01/23 10:25:50;;;;;;;27.30;17.40;;;5.20;99.90;;;;;;4998039;28;20219;-79
2023/01/23 10:28:29;;;;;;;25.00;18.73;;;5.30;99.90;;;;;;5075636;28;20224;-79
2023/01/23 10:31:01;;;;;;;23.85;17.67;;;5.30;99.90;;;;;;5072878;28;20230;-79
2023/01/23 10:33:40;;;;;;;22.33;16.70;;;5.30;99.90;;;;;;5060064;28;20305;-79
2023/01/23 10:36:21;;;;;;;22.55;17.33;;;5.30;99.90;;;;;;5072281;28;20661;-79
2023/01/23 10:38:59;;;;;;;22.08;16.25;;;5.30;99.90;;;;;;5073186;28;20223;-79
2023/01/23 10:41:26;;;;;;;26.38;19.67;;;5.40;99.90;;;;;;4964538;28;20223;-81
2023/01/23 10:43:57;;;;;;;23.35;16.42;;;5.30;99.90;;;;;;4971496;28;20573;-82
2023/01/23 10:46:30;;;;;;;23.75;17.90;;;5.40;99.90;;;;;;4970577;28;20290;-78
2023/01/23 10:49:00;;;;;;;24.25;16.98;;;5.40;99.90;;;;;;5072023;28;20216;-81
2023/01/23 10:51:44;;;;;;;31.35;18.85;;;5.40;99.90;;;;;;5072661;28;20561;-78
2023/01/23 10:54:14;;;;;;;21.77;16.05;;;5.40;99.90;;;;;;5076836;28;20402;-80
2023/01/23 10:56:54;;;;;;;24.98;17.02;;;5.50;99.90;;;;;;5075242;28;20223;-81
2023/01/23 10:59:38;;;;;;;22.02;16.85;;;5.50;99.90;;;;;;5074730;28;20599;-80
2023/01/23 11:02:20;;;;;;;22.08;17.83;;;5.50;99.90;;;;;;5063025;28;20273;-81
2023/01/23 11:04:51;;;;;;;25.10;17.63;;;5.50;99.90;;;;;;5075380;28;20315;-82
2023/01/23 11:07:20;;;;;;;22.25;16.70;;;5.50;99.90;;;;;;5075344;28;20704;-77
2023/01/23 11:09:50;;;;;;;22.42;17.98;;;5.50;99.90;;;;;;5074785;28;20318;-81
2023/01/23 11:12:21;;;;;;;22.85;17.70;;;5.50;99.90;;;;;;5075121;28;20254;-77
2023/01/23 11:14:49;;;;;;;22.30;17.80;;;5.50;99.90;;;;;;5075055;28;20286;-80
2023/01/23 11:17:20;;;;;;;19.42;14.77;;;5.50;99.90;;;;;;5077233;28;20263;-81
2023/01/23 11:19:53;;;;;;;21.70;16.67;;;5.50;99.90;;;;;;5075191;28;20224;-80
2023/01/23 11:22:35;;;;;;;20.88;16.20;;;5.50;99.90;;;;;;5076946;28;20224;-82
2023/01/23 11:25:28;;;;;;;21.17;16.40;;;5.50;99.90;;;;;;5077153;28;20734;-81
2023/01/23 11:28:00;;;;;;;22.77;17.27;;;5.50;99.90;;;;;;5076165;28;20220;-82
2023/01/23 11:30:38;;;;;;;22.05;17.60;;;5.50;99.90;;;;;;5066434;28;20228;-81
2023/01/23 11:33:18;;;;;;;23.33;17.20;;;5.50;99.90;;;;;;5075501;28;20697;-78
2023/01/23 11:35:59;;;;;;;24.08;17.42;;;5.60;99.90;;;;;;5075412;28;20664;-78
2023/01/23 11:38:35;;;;;;;25.02;17.42;;;5.50;99.90;;;;;;5075333;28;20250;-78
2023/01/23 11:41:03;;;;;;;24.95;17.08;;;5.50;99.90;;;;;;5070999;28;20303;-78
2023/01/23 11:43:33;;;;;;;24.63;18.92;;;5.50;99.90;;;;;;5057591;28;20673;-78
2023/01/23 11:46:36;;;;;;;24.55;17.88;;;5.50;99.90;;;;;;5002515;28;20252;-78
2023/01/23 11:49:22;;;;;;;24.42;18.35;;;5.50;99.90;;;;;;4955570;28;20619;-81
2023/01/23 11:52:00;;;;;;;22.25;18.25;;;5.50;99.90;;;;;;4974004;28;20700;-79
2023/01/23 11:54:50;;;;;;;25.50;17.90;;;5.50;99.90;;;;;;4974070;28;20223;-79
2023/01/23 11:57:23;;;;;;;22.73;16.77;;;5.50;99.90;;;;;;5047767;28;20224;-82
2023/01/23 12:00:06;;;;;;;20.45;18.15;;;5.50;99.90;;;;;;4974028;28;20319;-82
2023/01/23 12:02:58;;;;;;;22.45;17.88;;;5.50;99.90;;;;;;4963887;28;20228;-79
2023/01/23 12:05:41;;;;;;;22.98;16.15;;;5.50;99.90;;;;;;4955577;28;20228;-79
2023/01/23 12:08:19;;;;;;;21.45;17.13;;;5.60;99.90;;;;;;4975481;28;20223;-79
2023/01/23 12:10:59;;;;;;;19.05;15.02;;;5.60;99.90;;;;;;4974324;28;20314;-82
2023/01/23 12:13:50;;;;;;;23.17;15.48;;;5.60;99.90;;;;;;4967731;28;20227;-82
2023/01/23 12:16:24;;;;;;;18.58;15.48;;;5.60;99.90;;;;;;4972106;28;20224;-82
2023/01/23 12:19:08;;;;;;;22.15;16.77;;;5.60;99.90;;;;;;4977653;28;20254;-82
2023/01/23 12:21:43;;;;;;;21.30;15.50;;;5.60;99.90;;;;;;4962518;28;20232;-82
2023/01/23 12:24:19;;;;;;;21.63;15.32;;;5.60;99.90;;;;;;4968555;28;20251;-81
2023/01/23 12:27:01;;;;;;;21.02;15.75;;;5.50;99.90;;;;;;4969171;28;20228;-80
2023/01/23 12:29:48;;;;;;;18.10;14.57;;;5.50;99.90;;;;;;4964400;28;20224;-80
2023/01/23 12:32:43;;;;;;;;;;;;;;;;;;;;;
2023/01/23 12:35:30;;;;;;;18.77;13.88;;;5.50;99.90;;;;;;5079697;28;20231;-81
2023/01/23 12:38:33;;;;;;;16.85;13.38;;;5.50;99.90;;;;;;5080958;28;20263;-82
2023/01/23 12:44:24;;;;;;;16.85;14.35;;;5.40;99.90;;;;;;4961907;28;20224;-81
2023/01/23 12:47:00;;;;;;;16.98;13.20;;;5.50;99.90;;;;;;5076113;28;20234;-78
2023/01/23 12:49:46;;;;;;;21.10;14.93;;;5.50;99.90;;;;;;5074956;28;20307;-77
2023/01/23 12:52:22;;;;;;;15.70;11.75;;;5.50;99.90;;;;;;5049360;28;20242;-78
2023/01/23 12:55:18;;;;;;;20.13;12.85;;;5.50;99.90;;;;;;4958138;28;20254;-78
2023/01/23 12:58:08;;;;;;;;;;;;;;;;;;;;;
2023/01/23 13:00:53;;;;;;;18.35;13.88;;;5.50;99.90;;;;;;5071573;28;20224;-78
2023/01/23 13:03:47;;;;;;;15.95;12.98;;;5.50;99.90;;;;;;5050498;28;20737;-82
2023/01/23 13:06:35;;;;;;;18.52;14.25;;;5.60;99.90;;;;;;5005351;28;20326;-81
2023/01/23 13:09:10;;;;;;;15.68;13.48;;;5.60;99.90;;;;;;4990701;28;20235;-80
2023/01/23 13:11:46;;;;;;;17.60;13.15;;;5.60;99.90;;;;;;4970075;28;20227;-82